Cooperstown Junction, New York
Current Conditions -  °F | °C
As of 7:15 PM on Sunday 23 Nov 2014 (Local Time) from KNY0 Reporting Station
Clear Clear  
Wind Chill: 37°   Ceiling: Unl
Heat Index: 41°   Visibility: 10mi
Dew Point: 32°   Wind: 6mph
Humidity: 71%   Direction: 50°NE
Pressure: 30.02"   Gusts: NA
Location:  42.5423°N, 74.8983°W
Report Text: KNY0 240015Z AUTO 05005KT 10SM CLR 05/00 A3002 RMK AO2 T00500002
Loading
Personal Weather Stations






























Interactive Weather Map New forecast layout! Learn more

10-Day Weather Forecast

Advertisements
Track Severe Weather on mobile